sensor_id;sensor_type;location;lat;lon;timestamp;P1;durP1;ratioP1;P2;durP2;ratioP2
72974;SDS011;61166;54.228;37.632;2022-09-28T00:01:21;3.70;;;1.80;;
72974;SDS011;61166;54.228;37.632;2022-09-28T00:03:51;3.47;;;1.80;;
72974;SDS011;61166;54.228;37.632;2022-09-28T00:06:22;3.35;;;1.38;;
72974;SDS011;61166;54.228;37.632;2022-09-28T00:08:48;2.53;;;1.10;;
72974;SDS011;61166;54.228;37.632;2022-09-28T00:11:14;6.37;;;1.97;;
72974;SDS011;61166;54.228;37.632;2022-09-28T00:13:43;1.85;;;0.52;;
72974;SDS011;61166;54.228;37.632;2022-09-28T00:16:13;2.28;;;1.00;;
72974;SDS011;61166;54.228;37.632;2022-09-28T00:18:41;2.73;;;1.20;;
72974;SDS011;61166;54.228;37.632;2022-09-28T00:21:08;2.67;;;0.93;;
72974;SDS011;61166;54.228;37.632;2022-09-28T00:23:36;2.50;;;1.00;;
72974;SDS011;61166;54.228;37.632;2022-09-28T00:26:21;2.30;;;0.70;;
72974;SDS011;61166;54.228;37.632;2022-09-28T00:28:50;2.22;;;0.88;;
72974;SDS011;61166;54.228;37.632;2022-09-28T00:31:16;2.78;;;0.90;;
72974;SDS011;61166;54.228;37.632;2022-09-28T00:33:42;2.47;;;1.05;;
72974;SDS011;61166;54.228;37.632;2022-09-28T00:36:08;2.50;;;1.10;;
72974;SDS011;61166;54.228;37.632;2022-09-28T00:38:34;1.63;;;0.50;;
72974;SDS011;61166;54.228;37.632;2022-09-28T00:40:59;2.87;;;1.10;;
72974;SDS011;61166;54.228;37.632;2022-09-28T00:43:24;2.90;;;1.00;;
72974;SDS011;61166;54.228;37.632;2022-09-28T00:46:01;2.22;;;0.80;;
72974;SDS011;61166;54.228;37.632;2022-09-28T00:48:31;4.05;;;0.73;;
72974;SDS011;61166;54.228;37.632;2022-09-28T00:51:00;2.40;;;1.00;;
72974;SDS011;61166;54.228;37.632;2022-09-28T00:53:30;1.80;;;0.45;;
72974;SDS011;61166;54.228;37.632;2022-09-28T00:56:00;2.88;;;1.17;;
72974;SDS011;61166;54.228;37.632;2022-09-28T00:58:32;2.17;;;0.63;;
72974;SDS011;61166;54.228;37.632;2022-09-28T01:01:02;2.05;;;0.80;;
72974;SDS011;61166;54.228;37.632;2022-09-28T01:03:28;2.00;;;0.70;;
72974;SDS011;61166;54.228;37.632;2022-09-28T01:05:54;2.45;;;0.80;;
72974;SDS011;61166;54.228;37.632;2022-09-28T01:08:21;1.90;;;0.60;;
72974;SDS011;61166;54.228;37.632;2022-09-28T01:10:51;3.17;;;0.82;;
72974;SDS011;61166;54.228;37.632;2022-09-28T01:13:16;2.42;;;0.75;;
72974;SDS011;61166;54.228;37.632;2022-09-28T01:18:31;2.03;;;0.55;;
72974;SDS011;61166;54.228;37.632;2022-09-28T01:21:13;1.90;;;0.70;;
72974;SDS011;61166;54.228;37.632;2022-09-28T01:29:33;2.17;;;0.50;;
72974;SDS011;61166;54.228;37.632;2022-09-28T01:32:11;2.95;;;1.30;;
72974;SDS011;61166;54.228;37.632;2022-09-28T01:35:04;3.88;;;1.00;;
72974;SDS011;61166;54.228;37.632;2022-09-28T01:37:33;2.50;;;1.00;;
72974;SDS011;61166;54.228;37.632;2022-09-28T01:40:06;2.53;;;1.08;;
72974;SDS011;61166;54.228;37.632;2022-09-28T01:42:34;2.08;;;0.82;;
72974;SDS011;61166;54.228;37.632;2022-09-28T01:45:04;2.55;;;1.08;;
72974;SDS011;61166;54.228;37.632;2022-09-28T01:47:35;2.33;;;1.10;;
72974;SDS011;61166;54.228;37.632;2022-09-28T01:50:05;2.80;;;1.20;;
72974;SDS011;61166;54.228;37.632;2022-09-28T01:52:50;2.72;;;1.13;;
72974;SDS011;61166;54.228;37.632;2022-09-28T01:55:32;3.75;;;1.20;;
72974;SDS011;61166;54.228;37.632;2022-09-28T01:58:21;3.10;;;1.38;;
72974;SDS011;61166;54.228;37.632;2022-09-28T02:01:00;3.67;;;1.88;;
72974;SDS011;61166;54.228;37.632;2022-09-28T02:03:35;4.38;;;2.00;;
72974;SDS011;61166;54.228;37.632;2022-09-28T02:06:16;3.67;;;1.85;;
72974;SDS011;61166;54.228;37.632;2022-09-28T02:08:50;4.68;;;2.42;;
72974;SDS011;61166;54.228;37.632;2022-09-28T02:11:19;3.55;;;1.80;;
72974;SDS011;61166;54.228;37.632;2022-09-28T02:19:00;4.15;;;1.83;;
72974;SDS011;61166;54.228;37.632;2022-09-28T02:24:05;4.97;;;2.70;;
72974;SDS011;61166;54.228;37.632;2022-09-28T02:26:35;4.95;;;2.03;;
72974;SDS011;61166;54.228;37.632;2022-09-28T02:29:05;3.63;;;1.92;;
72974;SDS011;61166;54.228;37.632;2022-09-28T02:31:31;5.23;;;2.43;;
72974;SDS011;61166;54.228;37.632;2022-09-28T02:33:56;5.10;;;2.70;;
72974;SDS011;61166;54.228;37.632;2022-09-28T02:36:22;5.47;;;2.38;;
72974;SDS011;61166;54.228;37.632;2022-09-28T02:38:50;5.07;;;2.45;;
72974;SDS011;61166;54.228;37.632;2022-09-28T02:46:52;5.10;;;2.53;;
72974;SDS011;61166;54.228;37.632;2022-09-28T02:49:36;5.72;;;2.60;;
72974;SDS011;61166;54.228;37.632;2022-09-28T02:54:58;5.73;;;2.60;;
72974;SDS011;61166;54.228;37.632;2022-09-28T02:57:45;6.15;;;3.55;;
72974;SDS011;61166;54.228;37.632;2022-09-28T03:00:24;5.57;;;2.65;;
72974;SDS011;61166;54.228;37.632;2022-09-28T03:08:14;6.72;;;3.42;;
72974;SDS011;61166;54.228;37.632;2022-09-28T03:11:29;9.40;;;4.35;;
72974;SDS011;61166;54.228;37.632;2022-09-28T03:13:47;8.48;;;3.90;;
72974;SDS011;61166;54.228;37.632;2022-09-28T03:16:15;9.53;;;4.87;;
72974;SDS011;61166;54.228;37.632;2022-09-28T03:18:42;8.20;;;3.80;;
72974;SDS011;61166;54.228;37.632;2022-09-28T03:21:09;10.23;;;4.22;;
72974;SDS011;61166;54.228;37.632;2022-09-28T03:23:35;11.05;;;3.95;;
72974;SDS011;61166;54.228;37.632;2022-09-28T03:26:01;9.40;;;4.00;;
72974;SDS011;61166;54.228;37.632;2022-09-28T03:28:26;12.45;;;5.03;;
72974;SDS011;61166;54.228;37.632;2022-09-28T03:30:53;12.13;;;5.30;;
72974;SDS011;61166;54.228;37.632;2022-09-28T03:33:19;12.10;;;4.93;;
72974;SDS011;61166;54.228;37.632;2022-09-28T03:35:50;12.43;;;5.50;;
72974;SDS011;61166;54.228;37.632;2022-09-28T03:38:16;12.27;;;4.90;;
72974;SDS011;61166;54.228;37.632;2022-09-28T03:40:42;12.50;;;4.40;;
72974;SDS011;61166;54.228;37.632;2022-09-28T03:43:08;11.68;;;4.45;;
72974;SDS011;61166;54.228;37.632;2022-09-28T03:45:33;11.73;;;3.80;;
72974;SDS011;61166;54.228;37.632;2022-09-28T03:47:59;10.83;;;4.50;;
72974;SDS011;61166;54.228;37.632;2022-09-28T03:50:24;10.65;;;4.53;;
72974;SDS011;61166;54.228;37.632;2022-09-28T03:52:50;10.43;;;4.27;;
72974;SDS011;61166;54.228;37.632;2022-09-28T03:55:15;9.13;;;4.20;;
72974;SDS011;61166;54.228;37.632;2022-09-28T03:57:41;7.53;;;3.90;;
72974;SDS011;61166;54.228;37.632;2022-09-28T04:00:07;9.17;;;3.50;;
72974;SDS011;61166;54.228;37.632;2022-09-28T04:02:33;8.05;;;3.58;;
72974;SDS011;61166;54.228;37.632;2022-09-28T04:04:58;8.60;;;3.80;;
72974;SDS011;61166;54.228;37.632;2022-09-28T04:07:24;6.75;;;3.38;;
72974;SDS011;61166;54.228;37.632;2022-09-28T04:09:49;4.77;;;2.47;;
72974;SDS011;61166;54.228;37.632;2022-09-28T04:12:15;8.20;;;3.00;;
72974;SDS011;61166;54.228;37.632;2022-09-28T04:14:40;8.60;;;3.80;;
72974;SDS011;61166;54.228;37.632;2022-09-28T04:17:06;8.02;;;3.72;;
72974;SDS011;61166;54.228;37.632;2022-09-28T04:19:31;8.07;;;4.18;;
72974;SDS011;61166;54.228;37.632;2022-09-28T04:21:57;7.73;;;4.10;;
72974;SDS011;61166;54.228;37.632;2022-09-28T04:24:22;7.70;;;3.35;;
72974;SDS011;61166;54.228;37.632;2022-09-28T04:26:48;6.10;;;2.92;;
72974;SDS011;61166;54.228;37.632;2022-09-28T04:29:13;7.07;;;3.00;;
72974;SDS011;61166;54.228;37.632;2022-09-28T04:34:10;8.77;;;2.65;;
72974;SDS011;61166;54.228;37.632;2022-09-28T04:36:39;6.63;;;2.58;;
72974;SDS011;61166;54.228;37.632;2022-09-28T04:39:04;5.43;;;2.25;;
72974;SDS011;61166;54.228;37.632;2022-09-28T04:41:30;7.00;;;2.70;;
72974;SDS011;61166;54.228;37.632;2022-09-28T04:43:55;7.45;;;3.53;;
72974;SDS011;61166;54.228;37.632;2022-09-28T04:46:21;6.47;;;2.80;;
72974;SDS011;61166;54.228;37.632;2022-09-28T04:48:46;9.90;;;3.93;;
72974;SDS011;61166;54.228;37.632;2022-09-28T04:51:11;10.13;;;3.50;;
72974;SDS011;61166;54.228;37.632;2022-09-28T04:53:37;4.50;;;2.27;;
72974;SDS011;61166;54.228;37.632;2022-09-28T04:56:04;4.77;;;2.00;;
72974;SDS011;61166;54.228;37.632;2022-09-28T04:58:29;6.07;;;2.70;;
72974;SDS011;61166;54.228;37.632;2022-09-28T05:00:56;7.15;;;2.92;;
72974;SDS011;61166;54.228;37.632;2022-09-28T05:03:23;9.65;;;3.22;;
72974;SDS011;61166;54.228;37.632;2022-09-28T05:05:49;6.57;;;3.10;;
72974;SDS011;61166;54.228;37.632;2022-09-28T05:08:15;7.70;;;3.00;;
72974;SDS011;61166;54.228;37.632;2022-09-28T05:10:41;6.45;;;3.30;;
72974;SDS011;61166;54.228;37.632;2022-09-28T05:13:07;8.80;;;3.40;;
72974;SDS011;61166;54.228;37.632;2022-09-28T05:15:33;6.63;;;3.00;;
72974;SDS011;61166;54.228;37.632;2022-09-28T05:18:00;6.00;;;2.38;;
72974;SDS011;61166;54.228;37.632;2022-09-28T05:20:25;5.78;;;2.60;;
72974;SDS011;61166;54.228;37.632;2022-09-28T05:22:51;5.82;;;2.78;;
72974;SDS011;61166;54.228;37.632;2022-09-28T05:25:16;4.97;;;2.20;;
72974;SDS011;61166;54.228;37.632;2022-09-28T05:27:42;6.15;;;2.88;;
72974;SDS011;61166;54.228;37.632;2022-09-28T05:30:08;5.77;;;3.47;;
72974;SDS011;61166;54.228;37.632;2022-09-28T05:32:38;10.23;;;3.78;;
72974;SDS011;61166;54.228;37.632;2022-09-28T05:35:08;10.05;;;2.70;;
72974;SDS011;61166;54.228;37.632;2022-09-28T05:37:35;7.28;;;3.08;;
72974;SDS011;61166;54.228;37.632;2022-09-28T05:40:01;5.45;;;2.42;;
72974;SDS011;61166;54.228;37.632;2022-09-28T05:42:28;6.13;;;2.60;;
72974;SDS011;61166;54.228;37.632;2022-09-28T05:44:54;8.07;;;3.60;;
72974;SDS011;61166;54.228;37.632;2022-09-28T05:47:19;7.60;;;2.83;;
72974;SDS011;61166;54.228;37.632;2022-09-28T05:49:44;8.90;;;3.45;;
72974;SDS011;61166;54.228;37.632;2022-09-28T05:52:10;8.30;;;3.80;;
72974;SDS011;61166;54.228;37.632;2022-09-28T05:54:35;10.13;;;4.27;;
72974;SDS011;61166;54.228;37.632;2022-09-28T05:57:00;6.90;;;3.50;;
72974;SDS011;61166;54.228;37.632;2022-09-28T05:59:26;9.17;;;3.63;;
72974;SDS011;61166;54.228;37.632;2022-09-28T06:01:51;9.07;;;4.20;;
72974;SDS011;61166;54.228;37.632;2022-09-28T06:04:16;7.00;;;2.53;;
72974;SDS011;61166;54.228;37.632;2022-09-28T06:06:42;7.43;;;3.63;;
72974;SDS011;61166;54.228;37.632;2022-09-28T06:09:07;8.73;;;4.20;;
72974;SDS011;61166;54.228;37.632;2022-09-28T06:11:33;7.53;;;3.30;;
72974;SDS011;61166;54.228;37.632;2022-09-28T06:13:58;10.33;;;4.70;;
72974;SDS011;61166;54.228;37.632;2022-09-28T06:16:24;10.20;;;4.63;;
72974;SDS011;61166;54.228;37.632;2022-09-28T06:18:49;8.30;;;4.50;;
72974;SDS011;61166;54.228;37.632;2022-09-28T06:21:15;9.60;;;4.97;;
72974;SDS011;61166;54.228;37.632;2022-09-28T06:23:40;9.20;;;4.47;;
72974;SDS011;61166;54.228;37.632;2022-09-28T06:26:06;9.63;;;4.50;;
72974;SDS011;61166;54.228;37.632;2022-09-28T06:28:31;8.53;;;4.13;;
72974;SDS011;61166;54.228;37.632;2022-09-28T06:30:58;8.10;;;3.73;;
72974;SDS011;61166;54.228;37.632;2022-09-28T06:33:25;7.60;;;3.87;;
72974;SDS011;61166;54.228;37.632;2022-09-28T06:35:50;7.93;;;3.70;;
72974;SDS011;61166;54.228;37.632;2022-09-28T06:38:17;8.38;;;4.00;;
72974;SDS011;61166;54.228;37.632;2022-09-28T06:40:42;8.40;;;3.83;;
72974;SDS011;61166;54.228;37.632;2022-09-28T06:43:09;8.60;;;3.73;;
72974;SDS011;61166;54.228;37.632;2022-09-28T06:45:38;6.22;;;3.42;;
72974;SDS011;61166;54.228;37.632;2022-09-28T06:48:04;5.87;;;2.90;;
72974;SDS011;61166;54.228;37.632;2022-09-28T06:50:31;6.03;;;3.20;;
72974;SDS011;61166;54.228;37.632;2022-09-28T06:53:07;11.07;;;6.53;;
72974;SDS011;61166;54.228;37.632;2022-09-28T06:55:37;17.50;;;9.45;;
72974;SDS011;61166;54.228;37.632;2022-09-28T06:58:04;10.33;;;6.10;;
72974;SDS011;61166;54.228;37.632;2022-09-28T07:00:34;8.77;;;4.10;;
72974;SDS011;61166;54.228;37.632;2022-09-28T07:03:01;6.63;;;3.80;;
72974;SDS011;61166;54.228;37.632;2022-09-28T07:05:28;7.15;;;3.88;;
72974;SDS011;61166;54.228;37.632;2022-09-28T07:07:57;7.50;;;3.83;;
72974;SDS011;61166;54.228;37.632;2022-09-28T07:10:26;6.35;;;3.42;;
72974;SDS011;61166;54.228;37.632;2022-09-28T07:12:52;6.57;;;3.50;;
72974;SDS011;61166;54.228;37.632;2022-09-28T07:15:19;7.15;;;3.35;;
72974;SDS011;61166;54.228;37.632;2022-09-28T07:17:45;6.38;;;3.50;;
72974;SDS011;61166;54.228;37.632;2022-09-28T07:20:11;6.47;;;3.43;;
72974;SDS011;61166;54.228;37.632;2022-09-28T07:22:37;6.20;;;3.15;;
72974;SDS011;61166;54.228;37.632;2022-09-28T07:25:03;7.60;;;4.00;;
72974;SDS011;61166;54.228;37.632;2022-09-28T07:27:32;4.40;;;2.60;;
72974;SDS011;61166;54.228;37.632;2022-09-28T07:29:58;6.05;;;3.03;;
72974;SDS011;61166;54.228;37.632;2022-09-28T07:32:24;5.13;;;3.23;;
72974;SDS011;61166;54.228;37.632;2022-09-28T07:34:51;5.45;;;3.35;;
72974;SDS011;61166;54.228;37.632;2022-09-28T07:37:17;5.45;;;2.80;;
72974;SDS011;61166;54.228;37.632;2022-09-28T07:39:44;4.20;;;2.70;;
72974;SDS011;61166;54.228;37.632;2022-09-28T07:42:28;4.27;;;2.70;;
72974;SDS011;61166;54.228;37.632;2022-09-28T07:44:57;4.50;;;2.50;;
72974;SDS011;61166;54.228;37.632;2022-09-28T07:47:23;3.97;;;2.38;;
72974;SDS011;61166;54.228;37.632;2022-09-28T07:49:53;4.90;;;2.55;;
72974;SDS011;61166;54.228;37.632;2022-09-28T07:52:20;5.45;;;3.05;;
72974;SDS011;61166;54.228;37.632;2022-09-28T07:54:53;4.40;;;2.57;;
72974;SDS011;61166;54.228;37.632;2022-09-28T07:57:20;5.93;;;2.42;;
72974;SDS011;61166;54.228;37.632;2022-09-28T07:59:47;4.45;;;2.60;;
72974;SDS011;61166;54.228;37.632;2022-09-28T08:02:13;4.80;;;2.60;;
72974;SDS011;61166;54.228;37.632;2022-09-28T08:04:40;4.95;;;2.78;;
72974;SDS011;61166;54.228;37.632;2022-09-28T08:07:09;4.80;;;2.80;;
72974;SDS011;61166;54.228;37.632;2022-09-28T08:09:35;6.05;;;2.90;;
72974;SDS011;61166;54.228;37.632;2022-09-28T08:12:01;4.07;;;2.30;;
72974;SDS011;61166;54.228;37.632;2022-09-28T08:14:28;6.10;;;2.95;;
72974;SDS011;61166;54.228;37.632;2022-09-28T08:16:57;5.07;;;2.72;;
72974;SDS011;61166;54.228;37.632;2022-09-28T08:19:23;5.38;;;2.63;;
72974;SDS011;61166;54.228;37.632;2022-09-28T08:21:49;4.20;;;2.60;;
72974;SDS011;61166;54.228;37.632;2022-09-28T08:24:15;3.77;;;2.30;;
72974;SDS011;61166;54.228;37.632;2022-09-28T08:26:42;4.72;;;2.50;;
72974;SDS011;61166;54.228;37.632;2022-09-28T08:29:08;5.27;;;3.40;;
72974;SDS011;61166;54.228;37.632;2022-09-28T08:31:33;4.88;;;2.92;;
72974;SDS011;61166;54.228;37.632;2022-09-28T08:34:00;5.97;;;3.40;;
72974;SDS011;61166;54.228;37.632;2022-09-28T08:36:25;4.70;;;3.03;;
72974;SDS011;61166;54.228;37.632;2022-09-28T08:38:52;4.63;;;2.72;;
72974;SDS011;61166;54.228;37.632;2022-09-28T08:46:28;5.23;;;2.63;;
72974;SDS011;61166;54.228;37.632;2022-09-28T08:49:07;4.10;;;2.40;;
72974;SDS011;61166;54.228;37.632;2022-09-28T08:51:44;4.97;;;2.83;;
72974;SDS011;61166;54.228;37.632;2022-09-28T08:57:11;5.25;;;3.00;;
72974;SDS011;61166;54.228;37.632;2022-09-28T08:59:45;4.90;;;2.70;;
72974;SDS011;61166;54.228;37.632;2022-09-28T09:02:15;4.40;;;2.85;;
72974;SDS011;61166;54.228;37.632;2022-09-28T09:04:45;7.28;;;3.20;;
72974;SDS011;61166;54.228;37.632;2022-09-28T09:07:19;6.72;;;2.88;;
72974;SDS011;61166;54.228;37.632;2022-09-28T09:12:55;4.57;;;3.00;;
72974;SDS011;61166;54.228;37.632;2022-09-28T09:20:56;5.72;;;3.85;;
72974;SDS011;61166;54.228;37.632;2022-09-28T09:23:34;6.57;;;3.07;;
72974;SDS011;61166;54.228;37.632;2022-09-28T09:26:48;4.88;;;2.90;;
72974;SDS011;61166;54.228;37.632;2022-09-28T09:39:48;5.38;;;3.33;;
72974;SDS011;61166;54.228;37.632;2022-09-28T09:42:28;5.60;;;3.03;;
72974;SDS011;61166;54.228;37.632;2022-09-28T09:45:22;5.60;;;3.13;;
72974;SDS011;61166;54.228;37.632;2022-09-28T09:48:19;5.72;;;3.55;;
72974;SDS011;61166;54.228;37.632;2022-09-28T09:50:58;4.90;;;2.97;;
72974;SDS011;61166;54.228;37.632;2022-09-28T09:53:28;5.80;;;3.05;;
72974;SDS011;61166;54.228;37.632;2022-09-28T09:56:11;5.90;;;3.70;;
72974;SDS011;61166;54.228;37.632;2022-09-28T09:59:25;5.25;;;3.08;;
72974;SDS011;61166;54.228;37.632;2022-09-28T10:01:33;6.70;;;3.58;;
72974;SDS011;61166;54.228;37.632;2022-09-28T10:04:01;5.97;;;3.73;;
72974;SDS011;61166;54.228;37.632;2022-09-28T10:06:33;5.30;;;2.90;;
72974;SDS011;61166;54.228;37.632;2022-09-28T10:09:02;6.07;;;3.28;;
72974;SDS011;61166;54.228;37.632;2022-09-28T10:11:34;4.68;;;3.08;;
72974;SDS011;61166;54.228;37.632;2022-09-28T10:14:05;4.97;;;3.42;;
72974;SDS011;61166;54.228;37.632;2022-09-28T10:16:32;5.23;;;3.20;;
72974;SDS011;61166;54.228;37.632;2022-09-28T10:18:59;5.32;;;3.10;;
72974;SDS011;61166;54.228;37.632;2022-09-28T10:21:24;6.50;;;3.40;;
72974;SDS011;61166;54.228;37.632;2022-09-28T10:23:54;6.30;;;3.70;;
72974;SDS011;61166;54.228;37.632;2022-09-28T10:26:23;5.50;;;3.13;;
72974;SDS011;61166;54.228;37.632;2022-09-28T10:28:57;6.07;;;3.20;;
72974;SDS011;61166;54.228;37.632;2022-09-28T10:34:06;5.65;;;3.20;;
72974;SDS011;61166;54.228;37.632;2022-09-28T10:36:33;8.23;;;3.28;;
72974;SDS011;61166;54.228;37.632;2022-09-28T10:42:07;4.27;;;2.63;;
72974;SDS011;61166;54.228;37.632;2022-09-28T10:47:21;7.72;;;3.10;;
72974;SDS011;61166;54.228;37.632;2022-09-28T10:49:49;7.13;;;3.17;;
72974;SDS011;61166;54.228;37.632;2022-09-28T10:57:44;5.47;;;3.13;;
72974;SDS011;61166;54.228;37.632;2022-09-28T11:00:27;4.90;;;3.20;;
72974;SDS011;61166;54.228;37.632;2022-09-28T11:02:55;6.90;;;3.25;;
72974;SDS011;61166;54.228;37.632;2022-09-28T11:05:21;5.07;;;3.30;;
72974;SDS011;61166;54.228;37.632;2022-09-28T11:07:51;4.28;;;2.95;;
72974;SDS011;61166;54.228;37.632;2022-09-28T11:10:26;4.90;;;3.33;;
72974;SDS011;61166;54.228;37.632;2022-09-28T11:12:54;4.63;;;2.75;;
72974;SDS011;61166;54.228;37.632;2022-09-28T11:15:23;4.43;;;2.50;;
72974;SDS011;61166;54.228;37.632;2022-09-28T11:17:51;4.63;;;2.23;;
72974;SDS011;61166;54.228;37.632;2022-09-28T11:22:48;5.30;;;3.30;;
72974;SDS011;61166;54.228;37.632;2022-09-28T11:32:47;5.38;;;3.58;;
72974;SDS011;61166;54.228;37.632;2022-09-28T11:35:21;6.40;;;3.47;;
72974;SDS011;61166;54.228;37.632;2022-09-28T11:43:12;6.95;;;4.32;;
72974;SDS011;61166;54.228;37.632;2022-09-28T11:46:00;6.85;;;4.28;;
72974;SDS011;61166;54.228;37.632;2022-09-28T11:48:42;5.63;;;3.20;;
72974;SDS011;61166;54.228;37.632;2022-09-28T11:51:14;6.32;;;3.40;;
72974;SDS011;61166;54.228;37.632;2022-09-28T11:53:50;5.63;;;3.90;;
72974;SDS011;61166;54.228;37.632;2022-09-28T12:04:30;4.68;;;2.83;;
72974;SDS011;61166;54.228;37.632;2022-09-28T12:09:32;9.30;;;4.93;;
72974;SDS011;61166;54.228;37.632;2022-09-28T12:12:02;6.20;;;4.22;;
72974;SDS011;61166;54.228;37.632;2022-09-28T12:14:37;7.05;;;4.68;;
72974;SDS011;61166;54.228;37.632;2022-09-28T12:17:07;6.93;;;3.25;;
72974;SDS011;61166;54.228;37.632;2022-09-28T12:19:51;7.30;;;3.80;;
72974;SDS011;61166;54.228;37.632;2022-09-28T12:22:25;5.82;;;3.13;;
72974;SDS011;61166;54.228;37.632;2022-09-28T12:25:00;6.32;;;3.72;;
72974;SDS011;61166;54.228;37.632;2022-09-28T12:27:41;4.93;;;3.33;;
72974;SDS011;61166;54.228;37.632;2022-09-28T12:30:20;8.95;;;3.03;;
72974;SDS011;61166;54.228;37.632;2022-09-28T12:44:09;5.35;;;3.00;;
72974;SDS011;61166;54.228;37.632;2022-09-28T12:49:29;5.88;;;3.30;;
72974;SDS011;61166;54.228;37.632;2022-09-28T12:52:46;4.87;;;3.00;;
72974;SDS011;61166;54.228;37.632;2022-09-28T12:55:23;7.65;;;3.95;;
72974;SDS011;61166;54.228;37.632;2022-09-28T13:00:33;5.78;;;3.20;;
72974;SDS011;61166;54.228;37.632;2022-09-28T13:06:24;5.83;;;3.70;;
72974;SDS011;61166;54.228;37.632;2022-09-28T13:19:50;7.53;;;3.17;;
72974;SDS011;61166;54.228;37.632;2022-09-28T13:25:21;7.30;;;4.88;;
72974;SDS011;61166;54.228;37.632;2022-09-28T13:28:00;6.85;;;4.65;;
72974;SDS011;61166;54.228;37.632;2022-09-28T13:30:28;8.90;;;4.90;;
72974;SDS011;61166;54.228;37.632;2022-09-28T13:32:56;7.63;;;4.60;;
72974;SDS011;61166;54.228;37.632;2022-09-28T13:35:25;7.47;;;4.68;;
72974;SDS011;61166;54.228;37.632;2022-09-28T13:41:08;8.30;;;4.80;;
72974;SDS011;61166;54.228;37.632;2022-09-28T13:46:34;9.03;;;4.63;;
72974;SDS011;61166;54.228;37.632;2022-09-28T13:49:09;8.23;;;5.35;;
72974;SDS011;61166;54.228;37.632;2022-09-28T13:51:55;8.40;;;5.47;;
72974;SDS011;61166;54.228;37.632;2022-09-28T13:54:32;9.13;;;5.80;;
72974;SDS011;61166;54.228;37.632;2022-09-28T13:59:43;9.23;;;5.37;;
72974;SDS011;61166;54.228;37.632;2022-09-28T14:13:01;9.70;;;5.80;;
72974;SDS011;61166;54.228;37.632;2022-09-28T14:21:04;7.53;;;4.88;;
72974;SDS011;61166;54.228;37.632;2022-09-28T14:31:31;7.78;;;5.15;;
72974;SDS011;61166;54.228;37.632;2022-09-28T14:34:00;7.50;;;4.83;;
72974;SDS011;61166;54.228;37.632;2022-09-28T14:36:33;6.95;;;4.65;;
72974;SDS011;61166;54.228;37.632;2022-09-28T14:39:25;7.43;;;4.63;;
72974;SDS011;61166;54.228;37.632;2022-09-28T14:42:14;8.90;;;4.55;;
72974;SDS011;61166;54.228;37.632;2022-09-28T14:47:43;7.43;;;4.70;;
72974;SDS011;61166;54.228;37.632;2022-09-28T14:50:27;7.55;;;4.97;;
72974;SDS011;61166;54.228;37.632;2022-09-28T14:52:53;8.82;;;5.32;;
72974;SDS011;61166;54.228;37.632;2022-09-28T14:55:28;9.27;;;5.40;;
72974;SDS011;61166;54.228;37.632;2022-09-28T14:57:59;16.00;;;5.50;;
72974;SDS011;61166;54.228;37.632;2022-09-28T15:00:28;9.10;;;5.32;;
72974;SDS011;61166;54.228;37.632;2022-09-28T15:02:58;13.35;;;5.85;;
72974;SDS011;61166;54.228;37.632;2022-09-28T15:05:27;8.50;;;5.10;;
72974;SDS011;61166;54.228;37.632;2022-09-28T15:07:56;12.88;;;6.25;;
72974;SDS011;61166;54.228;37.632;2022-09-28T15:10:29;9.10;;;5.90;;
72974;SDS011;61166;54.228;37.632;2022-09-28T15:12:57;10.45;;;6.10;;
72974;SDS011;61166;54.228;37.632;2022-09-28T15:18:00;11.32;;;6.32;;
72974;SDS011;61166;54.228;37.632;2022-09-28T15:20:41;12.17;;;8.17;;
72974;SDS011;61166;54.228;37.632;2022-09-28T15:25:57;10.95;;;6.53;;
72974;SDS011;61166;54.228;37.632;2022-09-28T15:28:23;13.73;;;7.00;;
72974;SDS011;61166;54.228;37.632;2022-09-28T15:30:49;18.17;;;9.02;;
72974;SDS011;61166;54.228;37.632;2022-09-28T15:33:31;15.10;;;8.85;;
72974;SDS011;61166;54.228;37.632;2022-09-28T15:38:48;12.97;;;7.43;;
72974;SDS011;61166;54.228;37.632;2022-09-28T15:41:26;14.15;;;8.57;;
72974;SDS011;61166;54.228;37.632;2022-09-28T15:46:36;16.08;;;7.70;;
72974;SDS011;61166;54.228;37.632;2022-09-28T15:49:05;12.98;;;6.93;;
72974;SDS011;61166;54.228;37.632;2022-09-28T15:51:43;11.60;;;7.13;;
72974;SDS011;61166;54.228;37.632;2022-09-28T15:54:13;13.38;;;8.00;;
72974;SDS011;61166;54.228;37.632;2022-09-28T15:56:53;12.32;;;7.60;;
72974;SDS011;61166;54.228;37.632;2022-09-28T15:59:36;12.52;;;7.35;;
72974;SDS011;61166;54.228;37.632;2022-09-28T16:02:10;15.45;;;7.38;;
72974;SDS011;61166;54.228;37.632;2022-09-28T16:04:47;10.97;;;6.23;;
72974;SDS011;61166;54.228;37.632;2022-09-28T16:07:22;12.05;;;6.82;;
72974;SDS011;61166;54.228;37.632;2022-09-28T16:09:59;15.57;;;7.47;;
72974;SDS011;61166;54.228;37.632;2022-09-28T16:15:23;11.85;;;6.75;;
72974;SDS011;61166;54.228;37.632;2022-09-28T16:17:52;11.67;;;6.20;;
72974;SDS011;61166;54.228;37.632;2022-09-28T16:20:33;11.82;;;6.30;;
72974;SDS011;61166;54.228;37.632;2022-09-28T16:28:44;11.18;;;5.90;;
72974;SDS011;61166;54.228;37.632;2022-09-28T16:33:39;14.43;;;6.87;;
72974;SDS011;61166;54.228;37.632;2022-09-28T16:36:12;11.55;;;6.13;;
72974;SDS011;61166;54.228;37.632;2022-09-28T16:38:42;11.48;;;5.72;;
72974;SDS011;61166;54.228;37.632;2022-09-28T16:41:08;12.75;;;5.25;;
72974;SDS011;61166;54.228;37.632;2022-09-28T16:43:35;12.00;;;6.20;;
72974;SDS011;61166;54.228;37.632;2022-09-28T16:46:03;10.97;;;5.37;;
72974;SDS011;61166;54.228;37.632;2022-09-28T16:48:33;9.25;;;5.60;;
72974;SDS011;61166;54.228;37.632;2022-09-28T16:51:03;9.88;;;5.05;;
72974;SDS011;61166;54.228;37.632;2022-09-28T16:53:28;11.43;;;6.00;;
72974;SDS011;61166;54.228;37.632;2022-09-28T16:56:12;9.07;;;5.00;;
72974;SDS011;61166;54.228;37.632;2022-09-28T16:58:38;8.63;;;5.20;;
72974;SDS011;61166;54.228;37.632;2022-09-28T17:01:03;8.43;;;4.80;;
72974;SDS011;61166;54.228;37.632;2022-09-28T17:03:32;10.85;;;5.65;;
72974;SDS011;61166;54.228;37.632;2022-09-28T17:05:58;9.35;;;5.25;;
72974;SDS011;61166;54.228;37.632;2022-09-28T17:08:24;10.00;;;5.40;;
72974;SDS011;61166;54.228;37.632;2022-09-28T17:10:56;12.93;;;5.70;;
72974;SDS011;61166;54.228;37.632;2022-09-28T17:13:26;13.20;;;6.25;;
72974;SDS011;61166;54.228;37.632;2022-09-28T17:16:00;12.00;;;6.38;;
72974;SDS011;61166;54.228;37.632;2022-09-28T17:18:28;13.40;;;6.70;;
72974;SDS011;61166;54.228;37.632;2022-09-28T17:20:55;12.50;;;6.53;;
72974;SDS011;61166;54.228;37.632;2022-09-28T17:23:23;13.98;;;6.97;;
72974;SDS011;61166;54.228;37.632;2022-09-28T17:25:48;12.77;;;7.03;;
72974;SDS011;61166;54.228;37.632;2022-09-28T17:30:44;13.93;;;7.40;;
72974;SDS011;61166;54.228;37.632;2022-09-28T17:33:10;15.95;;;7.43;;
72974;SDS011;61166;54.228;37.632;2022-09-28T17:35:35;14.00;;;6.90;;
72974;SDS011;61166;54.228;37.632;2022-09-28T17:38:03;25.77;;;12.95;;
72974;SDS011;61166;54.228;37.632;2022-09-28T17:40:29;17.13;;;7.80;;
72974;SDS011;61166;54.228;37.632;2022-09-28T17:42:55;15.57;;;8.83;;
72974;SDS011;61166;54.228;37.632;2022-09-28T17:45:22;18.80;;;8.80;;
72974;SDS011;61166;54.228;37.632;2022-09-28T17:47:55;16.35;;;8.50;;
72974;SDS011;61166;54.228;37.632;2022-09-28T17:50:22;17.30;;;9.07;;
72974;SDS011;61166;54.228;37.632;2022-09-28T17:52:53;16.87;;;8.27;;
72974;SDS011;61166;54.228;37.632;2022-09-28T17:55:23;14.77;;;8.82;;
72974;SDS011;61166;54.228;37.632;2022-09-28T17:57:52;17.95;;;9.23;;
72974;SDS011;61166;54.228;37.632;2022-09-28T18:00:18;16.35;;;9.63;;
72974;SDS011;61166;54.228;37.632;2022-09-28T18:02:44;18.97;;;10.90;;